Airport View

Enter AWOS ICAO identifier for current METAR.

ex. KFNL

KSVE 022250Z AUTO 08006KT 10SM CLR 29/04 A3013 RMK AO2

2 Jun 2020 22:52

Frequency: 133.8

Phone: 530-257-0315

Other Area AWOS: KRTS - KRNO - KBLU - KAAT

TAF KRNO 021720Z 0218/0318 16007KT P6SM FEW090 SCT150 FM022300 27011G18KT P6SM FEW090 FM030400 VRB04KT P6SM SKC